sensor_id;sensor_type;location;lat;lon;timestamp;pressure;altitude;pressure_sealevel;temperature;humidity
68594;BME280;55563;52.416;13.548;2023-04-07T00:00:03;101537.53;;;1.62;100.00
68594;BME280;55563;52.416;13.548;2023-04-07T00:02:22;101543.13;;;1.51;100.00
68594;BME280;55563;52.416;13.548;2023-04-07T00:04:23;101537.03;;;1.59;100.00
68594;BME280;55563;52.416;13.548;2023-04-07T00:06:23;101540.69;;;1.50;100.00
68594;BME280;55563;52.416;13.548;2023-04-07T00:08:24;101540.25;;;1.46;100.00
68594;BME280;55563;52.416;13.548;2023-04-07T00:10:25;101544.78;;;1.29;100.00
68594;BME280;55563;52.416;13.548;2023-04-07T00:12:26;101539.03;;;1.19;100.00
68594;BME280;55563;52.416;13.548;2023-04-07T00:14:27;101536.50;;;1.34;100.00
68594;BME280;55563;52.416;13.548;2023-04-07T00:16:28;101538.31;;;1.48;100.00
68594;BME280;55563;52.416;13.548;2023-04-07T00:18:29;101543.44;;;1.34;100.00
68594;BME280;55563;52.416;13.548;2023-04-07T00:20:29;101539.97;;;1.41;100.00
68594;BME280;55563;52.416;13.548;2023-04-07T00:22:30;101539.09;;;1.34;100.00
68594;BME280;55563;52.416;13.548;2023-04-07T00:24:31;101534.34;;;1.38;100.00
68594;BME280;55563;52.416;13.548;2023-04-07T00:26:31;101534.84;;;1.18;100.00
68594;BME280;55563;52.416;13.548;2023-04-07T00:28:32;101529.13;;;1.23;100.00
68594;BME280;55563;52.416;13.548;2023-04-07T00:30:33;101528.41;;;1.14;100.00
68594;BME280;55563;52.416;13.548;2023-04-07T00:32:34;101533.38;;;1.16;100.00
68594;BME280;55563;52.416;13.548;2023-04-07T00:34:35;101525.34;;;1.11;100.00
68594;BME280;55563;52.416;13.548;2023-04-07T00:36:35;101529.31;;;1.21;100.00
68594;BME280;55563;52.416;13.548;2023-04-07T00:38:36;101531.72;;;1.23;100.00
68594;BME280;55563;52.416;13.548;2023-04-07T00:40:37;101532.19;;;1.26;100.00
68594;BME280;55563;52.416;13.548;2023-04-07T00:42:38;101528.25;;;1.30;100.00
68594;BME280;55563;52.416;13.548;2023-04-07T00:44:38;101534.06;;;1.33;100.00
68594;BME280;55563;52.416;13.548;2023-04-07T00:46:40;101522.81;;;1.40;100.00
68594;BME280;55563;52.416;13.548;2023-04-07T00:48:40;101527.38;;;1.38;100.00
68594;BME280;55563;52.416;13.548;2023-04-07T00:50:41;101518.38;;;1.34;100.00
68594;BME280;55563;52.416;13.548;2023-04-07T00:52:42;101511.84;;;1.38;100.00
68594;BME280;55563;52.416;13.548;2023-04-07T00:54:43;101517.09;;;1.30;100.00
68594;BME280;55563;52.416;13.548;2023-04-07T00:56:46;101516.47;;;1.28;100.00
68594;BME280;55563;52.416;13.548;2023-04-07T00:58:47;101518.41;;;1.26;100.00
68594;BME280;55563;52.416;13.548;2023-04-07T01:00:48;101512.00;;;1.22;100.00
68594;BME280;55563;52.416;13.548;2023-04-07T01:02:57;101513.69;;;1.15;100.00
68594;BME280;55563;52.416;13.548;2023-04-07T01:05:20;101505.50;;;1.03;100.00
68594;BME280;55563;52.416;13.548;2023-04-07T01:07:57;101504.94;;;0.93;100.00
68594;BME280;55563;52.416;13.548;2023-04-07T01:09:57;101498.16;;;0.92;100.00
68594;BME280;55563;52.416;13.548;2023-04-07T01:12:21;101503.81;;;0.96;100.00
68594;BME280;55563;52.416;13.548;2023-04-07T01:14:24;101500.00;;;0.83;100.00
68594;BME280;55563;52.416;13.548;2023-04-07T01:16:54;101493.69;;;0.86;100.00
68594;BME280;55563;52.416;13.548;2023-04-07T01:19:05;101495.75;;;0.91;100.00
68594;BME280;55563;52.416;13.548;2023-04-07T01:21:14;101502.81;;;0.97;100.00
68594;BME280;55563;52.416;13.548;2023-04-07T01:23:22;101496.38;;;0.93;100.00
68594;BME280;55563;52.416;13.548;2023-04-07T01:28:13;101498.34;;;0.91;100.00
68594;BME280;55563;52.416;13.548;2023-04-07T01:30:15;101484.25;;;0.93;100.00
68594;BME280;55563;52.416;13.548;2023-04-07T01:32:17;101489.78;;;0.90;100.00
68594;BME280;55563;52.416;13.548;2023-04-07T01:34:21;101490.06;;;0.95;100.00
68594;BME280;55563;52.416;13.548;2023-04-07T01:36:24;101483.44;;;0.93;100.00
68594;BME280;55563;52.416;13.548;2023-04-07T01:38:28;101489.50;;;0.85;100.00
68594;BME280;55563;52.416;13.548;2023-04-07T01:40:32;101478.16;;;0.86;100.00
68594;BME280;55563;52.416;13.548;2023-04-07T01:42:34;101489.19;;;0.80;100.00
68594;BME280;55563;52.416;13.548;2023-04-07T01:44:37;101486.63;;;0.80;100.00
68594;BME280;55563;52.416;13.548;2023-04-07T01:46:38;101484.03;;;0.80;100.00
68594;BME280;55563;52.416;13.548;2023-04-07T01:48:39;101490.25;;;0.71;100.00
68594;BME280;55563;52.416;13.548;2023-04-07T01:50:41;101477.41;;;0.77;100.00
68594;BME280;55563;52.416;13.548;2023-04-07T01:52:43;101488.19;;;0.66;100.00
68594;BME280;55563;52.416;13.548;2023-04-07T01:54:44;101480.41;;;0.66;100.00
68594;BME280;55563;52.416;13.548;2023-04-07T01:56:45;101488.84;;;0.60;100.00
68594;BME280;55563;52.416;13.548;2023-04-07T01:58:46;101474.44;;;0.66;100.00
68594;BME280;55563;52.416;13.548;2023-04-07T02:00:50;101479.41;;;0.67;100.00
68594;BME280;55563;52.416;13.548;2023-04-07T02:02:57;101484.13;;;0.64;100.00
68594;BME280;55563;52.416;13.548;2023-04-07T02:05:03;101480.56;;;0.65;100.00
68594;BME280;55563;52.416;13.548;2023-04-07T02:07:09;101480.78;;;0.78;100.00
68594;BME280;55563;52.416;13.548;2023-04-07T02:09:20;101471.31;;;0.70;100.00
68594;BME280;55563;52.416;13.548;2023-04-07T02:11:23;101474.88;;;0.69;100.00
68594;BME280;55563;52.416;13.548;2023-04-07T02:13:27;101465.19;;;0.71;100.00
68594;BME280;55563;52.416;13.548;2023-04-07T02:15:29;101470.34;;;0.71;100.00
68594;BME280;55563;52.416;13.548;2023-04-07T02:17:33;101465.69;;;0.67;100.00
68594;BME280;55563;52.416;13.548;2023-04-07T02:19:35;101464.69;;;0.68;100.00
68594;BME280;55563;52.416;13.548;2023-04-07T02:21:38;101464.47;;;0.77;100.00
68594;BME280;55563;52.416;13.548;2023-04-07T02:23:40;101462.88;;;0.76;100.00
68594;BME280;55563;52.416;13.548;2023-04-07T02:25:40;101467.84;;;0.78;100.00
68594;BME280;55563;52.416;13.548;2023-04-07T02:27:41;101468.75;;;0.70;100.00
68594;BME280;55563;52.416;13.548;2023-04-07T02:29:42;101457.47;;;0.63;100.00
68594;BME280;55563;52.416;13.548;2023-04-07T02:31:42;101464.09;;;0.66;100.00
68594;BME280;55563;52.416;13.548;2023-04-07T02:33:43;101466.31;;;0.69;100.00
68594;BME280;55563;52.416;13.548;2023-04-07T02:35:44;101468.28;;;0.67;100.00
68594;BME280;55563;52.416;13.548;2023-04-07T02:37:45;101464.88;;;0.66;100.00
68594;BME280;55563;52.416;13.548;2023-04-07T02:39:46;101463.28;;;0.65;100.00
68594;BME280;55563;52.416;13.548;2023-04-07T02:41:46;101467.47;;;0.66;100.00
68594;BME280;55563;52.416;13.548;2023-04-07T02:43:47;101461.31;;;0.67;100.00
68594;BME280;55563;52.416;13.548;2023-04-07T02:45:50;101464.38;;;0.71;100.00
68594;BME280;55563;52.416;13.548;2023-04-07T02:47:51;101465.88;;;0.65;100.00
68594;BME280;55563;52.416;13.548;2023-04-07T02:49:51;101461.16;;;0.69;100.00
68594;BME280;55563;52.416;13.548;2023-04-07T02:51:52;101458.03;;;0.73;100.00
68594;BME280;55563;52.416;13.548;2023-04-07T02:53:53;101460.81;;;0.72;100.00
68594;BME280;55563;52.416;13.548;2023-04-07T02:55:54;101461.16;;;0.69;100.00
68594;BME280;55563;52.416;13.548;2023-04-07T02:57:54;101457.75;;;0.68;100.00
68594;BME280;55563;52.416;13.548;2023-04-07T03:00:10;101460.84;;;0.64;100.00
68594;BME280;55563;52.416;13.548;2023-04-07T03:02:31;101458.63;;;0.61;100.00
68594;BME280;55563;52.416;13.548;2023-04-07T03:04:32;101457.28;;;0.65;100.00
68594;BME280;55563;52.416;13.548;2023-04-07T03:06:34;101450.97;;;0.67;100.00
68594;BME280;55563;52.416;13.548;2023-04-07T03:08:41;101456.78;;;0.69;100.00
68594;BME280;55563;52.416;13.548;2023-04-07T03:10:42;101454.72;;;0.65;100.00
68594;BME280;55563;52.416;13.548;2023-04-07T03:13:14;101458.03;;;0.73;100.00
68594;BME280;55563;52.416;13.548;2023-04-07T03:15:19;101456.91;;;0.76;100.00
68594;BME280;55563;52.416;13.548;2023-04-07T03:17:21;101453.81;;;0.72;100.00
68594;BME280;55563;52.416;13.548;2023-04-07T03:19:23;101454.63;;;0.73;100.00
68594;BME280;55563;52.416;13.548;2023-04-07T03:21:24;101447.69;;;0.73;100.00
68594;BME280;55563;52.416;13.548;2023-04-07T03:23:25;101445.53;;;0.77;100.00
68594;BME280;55563;52.416;13.548;2023-04-07T03:25:30;101444.56;;;0.78;100.00
68594;BME280;55563;52.416;13.548;2023-04-07T03:27:32;101443.44;;;0.80;100.00
68594;BME280;55563;52.416;13.548;2023-04-07T03:29:34;101447.34;;;0.76;100.00
68594;BME280;55563;52.416;13.548;2023-04-07T03:31:37;101446.25;;;0.71;100.00
68594;BME280;55563;52.416;13.548;2023-04-07T03:33:38;101444.28;;;0.73;100.00
68594;BME280;55563;52.416;13.548;2023-04-07T03:35:38;101432.84;;;0.67;100.00
68594;BME280;55563;52.416;13.548;2023-04-07T03:37:40;101437.69;;;0.70;100.00
68594;BME280;55563;52.416;13.548;2023-04-07T03:39:46;101438.16;;;0.74;100.00
68594;BME280;55563;52.416;13.548;2023-04-07T03:42:06;101438.44;;;0.79;100.00
68594;BME280;55563;52.416;13.548;2023-04-07T03:44:08;101442.78;;;0.78;100.00
68594;BME280;55563;52.416;13.548;2023-04-07T03:46:11;101433.25;;;0.79;100.00
68594;BME280;55563;52.416;13.548;2023-04-07T03:48:12;101436.38;;;0.74;100.00
68594;BME280;55563;52.416;13.548;2023-04-07T03:50:21;101432.34;;;0.72;100.00
68594;BME280;55563;52.416;13.548;2023-04-07T03:52:31;101433.38;;;0.63;100.00
68594;BME280;55563;52.416;13.548;2023-04-07T03:54:40;101436.16;;;0.61;100.00
68594;BME280;55563;52.416;13.548;2023-04-07T03:56:42;101427.50;;;0.69;100.00
68594;BME280;55563;52.416;13.548;2023-04-07T03:58:42;101434.94;;;0.72;100.00
68594;BME280;55563;52.416;13.548;2023-04-07T04:00:48;101433.56;;;0.61;100.00
68594;BME280;55563;52.416;13.548;2023-04-07T04:02:49;101443.84;;;0.69;100.00
68594;BME280;55563;52.416;13.548;2023-04-07T04:04:53;101435.63;;;0.66;100.00
68594;BME280;55563;52.416;13.548;2023-04-07T04:06:56;101428.19;;;0.63;100.00
68594;BME280;55563;52.416;13.548;2023-04-07T04:09:08;101427.34;;;0.70;100.00
68594;BME280;55563;52.416;13.548;2023-04-07T04:11:13;101423.06;;;0.77;100.00
68594;BME280;55563;52.416;13.548;2023-04-07T04:13:21;101430.31;;;0.82;100.00
68594;BME280;55563;52.416;13.548;2023-04-07T04:15:23;101435.19;;;0.77;100.00
68594;BME280;55563;52.416;13.548;2023-04-07T04:17:24;101435.19;;;0.77;100.00
68594;BME280;55563;52.416;13.548;2023-04-07T04:19:26;101436.28;;;0.82;100.00
68594;BME280;55563;52.416;13.548;2023-04-07T04:21:29;101431.47;;;0.79;100.00
68594;BME280;55563;52.416;13.548;2023-04-07T04:23:31;101429.16;;;0.84;100.00
68594;BME280;55563;52.416;13.548;2023-04-07T04:25:32;101429.84;;;0.78;100.00
68594;BME280;55563;52.416;13.548;2023-04-07T04:27:36;101429.84;;;0.78;100.00
68594;BME280;55563;52.416;13.548;2023-04-07T04:29:44;101436.38;;;0.74;100.00
68594;BME280;55563;52.416;13.548;2023-04-07T04:31:47;101439.31;;;0.71;100.00
68594;BME280;55563;52.416;13.548;2023-04-07T04:33:48;101440.91;;;0.72;100.00
68594;BME280;55563;52.416;13.548;2023-04-07T04:35:49;101437.47;;;0.80;100.00
68594;BME280;55563;52.416;13.548;2023-04-07T04:37:53;101429.78;;;0.86;100.00
68594;BME280;55563;52.416;13.548;2023-04-07T04:39:54;101442.28;;;0.83;100.00
68594;BME280;55563;52.416;13.548;2023-04-07T04:41:57;101434.47;;;0.91;100.00
68594;BME280;55563;52.416;13.548;2023-04-07T04:44:04;101437.56;;;1.01;100.00
68594;BME280;55563;52.416;13.548;2023-04-07T04:46:05;101433.75;;;0.97;100.00
68594;BME280;55563;52.416;13.548;2023-04-07T04:48:11;101443.63;;;0.94;100.00
68594;BME280;55563;52.416;13.548;2023-04-07T04:50:11;101433.50;;;1.07;100.00
68594;BME280;55563;52.416;13.548;2023-04-07T04:52:14;101442.44;;;1.19;100.00
68594;BME280;55563;52.416;13.548;2023-04-07T04:54:18;101438.78;;;1.28;100.00
68594;BME280;55563;52.416;13.548;2023-04-07T04:56:19;101441.72;;;1.25;100.00
68594;BME280;55563;52.416;13.548;2023-04-07T04:58:22;101448.09;;;1.37;100.00
68594;BME280;55563;52.416;13.548;2023-04-07T05:00:27;101451.22;;;1.47;100.00
68594;BME280;55563;52.416;13.548;2023-04-07T05:02:35;101457.47;;;1.38;100.00
68594;BME280;55563;52.416;13.548;2023-04-07T05:04:37;101457.09;;;1.41;100.00
68594;BME280;55563;52.416;13.548;2023-04-07T05:06:51;101456.19;;;1.49;100.00
68594;BME280;55563;52.416;13.548;2023-04-07T05:08:55;101445.28;;;1.68;100.00
68594;BME280;55563;52.416;13.548;2023-04-07T05:11:00;101453.53;;;1.71;100.00
68594;BME280;55563;52.416;13.548;2023-04-07T05:13:05;101453.88;;;1.83;100.00
68594;BME280;55563;52.416;13.548;2023-04-07T05:15:08;101453.06;;;1.83;100.00
68594;BME280;55563;52.416;13.548;2023-04-07T05:17:09;101452.06;;;1.84;100.00
68594;BME280;55563;52.416;13.548;2023-04-07T05:19:10;101451.78;;;1.93;100.00
68594;BME280;55563;52.416;13.548;2023-04-07T05:21:10;101452.22;;;1.97;100.00
68594;BME280;55563;52.416;13.548;2023-04-07T05:23:11;101438.13;;;1.99;100.00
68594;BME280;55563;52.416;13.548;2023-04-07T05:25:12;101452.00;;;1.92;100.00
68594;BME280;55563;52.416;13.548;2023-04-07T05:27:15;101442.09;;;1.81;100.00
68594;BME280;55563;52.416;13.548;2023-04-07T05:29:18;101452.44;;;1.81;100.00
68594;BME280;55563;52.416;13.548;2023-04-07T05:31:18;101446.06;;;1.98;100.00
68594;BME280;55563;52.416;13.548;2023-04-07T05:33:21;101449.72;;;2.03;100.00
68594;BME280;55563;52.416;13.548;2023-04-07T05:35:26;101443.56;;;2.04;100.00
68594;BME280;55563;52.416;13.548;2023-04-07T05:37:30;101438.88;;;2.14;100.00
68594;BME280;55563;52.416;13.548;2023-04-07T05:39:33;101436.72;;;2.18;100.00
68594;BME280;55563;52.416;13.548;2023-04-07T05:41:35;101435.91;;;2.17;100.00
68594;BME280;55563;52.416;13.548;2023-04-07T05:43:36;101450.31;;;2.20;100.00
68594;BME280;55563;52.416;13.548;2023-04-07T05:45:38;101443.69;;;2.17;100.00
68594;BME280;55563;52.416;13.548;2023-04-07T05:47:40;101436.97;;;2.23;100.00
68594;BME280;55563;52.416;13.548;2023-04-07T05:49:42;101440.09;;;2.33;100.00
68594;BME280;55563;52.416;13.548;2023-04-07T05:51:46;101439.66;;;2.30;100.00
68594;BME280;55563;52.416;13.548;2023-04-07T05:53:48;101438.66;;;2.31;100.00
68594;BME280;55563;52.416;13.548;2023-04-07T05:55:50;101439.53;;;2.38;100.00
68594;BME280;55563;52.416;13.548;2023-04-07T05:58:11;101427.63;;;2.43;100.00
68594;BME280;55563;52.416;13.548;2023-04-07T06:00:14;101438.53;;;2.39;100.00
68594;BME280;55563;52.416;13.548;2023-04-07T06:02:20;101442.78;;;2.46;100.00
68594;BME280;55563;52.416;13.548;2023-04-07T06:04:21;101446.38;;;2.45;100.00
68594;BME280;55563;52.416;13.548;2023-04-07T06:06:24;101447.38;;;2.44;100.00
68594;BME280;55563;52.416;13.548;2023-04-07T06:08:26;101448.09;;;2.59;100.00
68594;BME280;55563;52.416;13.548;2023-04-07T06:10:27;101449.28;;;2.57;100.00
68594;BME280;55563;52.416;13.548;2023-04-07T06:12:27;101452.94;;;2.62;100.00
68594;BME280;55563;52.416;13.548;2023-04-07T06:14:29;101450.59;;;2.68;100.00
68594;BME280;55563;52.416;13.548;2023-04-07T06:16:30;101455.16;;;2.66;100.00
68594;BME280;55563;52.416;13.548;2023-04-07T06:18:31;101456.69;;;2.81;100.00
68594;BME280;55563;52.416;13.548;2023-04-07T06:20:32;101457.75;;;2.87;100.00
68594;BME280;55563;52.416;13.548;2023-04-07T06:22:33;101458.41;;;2.74;100.00
68594;BME280;55563;52.416;13.548;2023-04-07T06:24:34;101461.56;;;2.91;100.00
68594;BME280;55563;52.416;13.548;2023-04-07T06:26:38;101465.00;;;2.98;100.00
68594;BME280;55563;52.416;13.548;2023-04-07T06:28:39;101458.81;;;2.99;100.00
68594;BME280;55563;52.416;13.548;2023-04-07T06:30:40;101471.63;;;3.00;100.00
68594;BME280;55563;52.416;13.548;2023-04-07T06:32:44;101474.16;;;2.94;100.00
68594;BME280;55563;52.416;13.548;2023-04-07T06:34:44;101461.28;;;3.07;100.00
68594;BME280;55563;52.416;13.548;2023-04-07T06:36:45;101464.25;;;3.04;100.00
68594;BME280;55563;52.416;13.548;2023-04-07T06:38:46;101465.88;;;3.05;100.00
68594;BME280;55563;52.416;13.548;2023-04-07T06:40:47;101463.75;;;3.15;100.00
68594;BME280;55563;52.416;13.548;2023-04-07T06:42:47;101471.50;;;3.08;100.00
68594;BME280;55563;52.416;13.548;2023-04-07T06:44:56;101474.00;;;3.23;100.00
68594;BME280;55563;52.416;13.548;2023-04-07T06:46:57;101463.53;;;3.17;100.00
68594;BME280;55563;52.416;13.548;2023-04-07T06:48:57;101470.47;;;3.31;100.00
68594;BME280;55563;52.416;13.548;2023-04-07T06:50:58;101469.44;;;3.25;100.00
68594;BME280;55563;52.416;13.548;2023-04-07T06:52:58;101476.03;;;3.28;100.00
68594;BME280;55563;52.416;13.548;2023-04-07T06:54:59;101471.13;;;3.39;100.00
68594;BME280;55563;52.416;13.548;2023-04-07T06:57:00;101462.75;;;3.50;100.00
68594;BME280;55563;52.416;13.548;2023-04-07T06:59:01;101470.69;;;3.70;100.00
68594;BME280;55563;52.416;13.548;2023-04-07T07:01:02;101468.41;;;3.54;100.00
68594;BME280;55563;52.416;13.548;2023-04-07T07:03:03;101475.00;;;3.57;100.00
68594;BME280;55563;52.416;13.548;2023-04-07T07:05:04;101472.16;;;3.86;100.00
68594;BME280;55563;52.416;13.548;2023-04-07T07:07:06;101477.22;;;4.01;100.00
68594;BME280;55563;52.416;13.548;2023-04-07T07:09:07;101472.09;;;4.27;100.00
68594;BME280;55563;52.416;13.548;2023-04-07T07:11:07;101479.53;;;4.30;100.00
68594;BME280;55563;52.416;13.548;2023-04-07T07:13:08;101473.75;;;4.48;100.00
68594;BME280;55563;52.416;13.548;2023-04-07T07:15:09;101477.56;;;4.52;100.00
68594;BME280;55563;52.416;13.548;2023-04-07T07:17:10;101473.16;;;4.46;100.00
68594;BME280;55563;52.416;13.548;2023-04-07T07:19:11;101477.75;;;4.44;100.00
68594;BME280;55563;52.416;13.548;2023-04-07T07:21:11;101476.16;;;4.43;100.00
68594;BME280;55563;52.416;13.548;2023-04-07T07:23:12;101475.13;;;4.30;100.00
68594;BME280;55563;52.416;13.548;2023-04-07T07:25:13;101479.53;;;4.30;100.00
68594;BME280;55563;52.416;13.548;2023-04-07T07:27:13;101479.13;;;4.26;100.00
68594;BME280;55563;52.416;13.548;2023-04-07T07:29:14;101479.75;;;4.35;100.00
68594;BME280;55563;52.416;13.548;2023-04-07T07:31:15;101485.75;;;4.35;100.00
68594;BME280;55563;52.416;13.548;2023-04-07T07:33:16;101481.78;;;4.53;100.00
68594;BME280;55563;52.416;13.548;2023-04-07T07:35:17;101485.00;;;4.68;100.00
68594;BME280;55563;52.416;13.548;2023-04-07T07:37:17;101483.78;;;4.57;100.00
68594;BME280;55563;52.416;13.548;2023-04-07T07:39:18;101480.22;;;4.65;100.00
68594;BME280;55563;52.416;13.548;2023-04-07T07:41:19;101472.19;;;4.66;100.00
68594;BME280;55563;52.416;13.548;2023-04-07T07:43:20;101474.81;;;4.73;100.00
68594;BME280;55563;52.416;13.548;2023-04-07T07:45:21;101478.41;;;4.92;100.00
68594;BME280;55563;52.416;13.548;2023-04-07T07:47:22;101480.81;;;5.06;100.00
68594;BME280;55563;52.416;13.548;2023-04-07T07:49:22;101487.22;;;5.23;100.00
68594;BME280;55563;52.416;13.548;2023-04-07T07:51:23;101485.22;;;5.19;100.00
68594;BME280;55563;52.416;13.548;2023-04-07T07:53:24;101485.63;;;5.29;100.00
68594;BME280;55563;52.416;13.548;2023-04-07T07:55:24;101483.22;;;5.34;100.00
68594;BME280;55563;52.416;13.548;2023-04-07T07:57:25;101496.84;;;5.36;100.00
68594;BME280;55563;52.416;13.548;2023-04-07T07:59:26;101499.25;;;5.51;100.00
68594;BME280;55563;52.416;13.548;2023-04-07T08:01:26;101495.56;;;5.78;100.00
68594;BME280;55563;52.416;13.548;2023-04-07T08:03:27;101494.03;;;5.51;100.00
68594;BME280;55563;52.416;13.548;2023-04-07T08:05:28;101495.97;;;5.75;100.00
68594;BME280;55563;52.416;13.548;2023-04-07T08:07:28;101500.00;;;5.58;100.00
68594;BME280;55563;52.416;13.548;2023-04-07T08:09:30;101490.53;;;5.83;100.00
68594;BME280;55563;52.416;13.548;2023-04-07T08:11:32;101493.78;;;5.65;100.00
68594;BME280;55563;52.416;13.548;2023-04-07T08:13:50;101490.94;;;5.87;100.00
68594;BME280;55563;52.416;13.548;2023-04-07T08:15:53;101486.31;;;5.89;100.00
68594;BME280;55563;52.416;13.548;2023-04-07T08:17:54;101487.06;;;6.09;100.00
68594;BME280;55563;52.416;13.548;2023-04-07T08:19:55;101489.44;;;6.10;100.00
68594;BME280;55563;52.416;13.548;2023-04-07T08:21:55;101489.53;;;6.29;100.00
68594;BME280;55563;52.416;13.548;2023-04-07T08:23:56;101497.69;;;6.01;100.00
68594;BME280;55563;52.416;13.548;2023-04-07T08:25:57;101495.44;;;6.55;100.00
68594;BME280;55563;52.416;13.548;2023-04-07T08:27:57;101488.31;;;6.38;100.00
68594;BME280;55563;52.416;13.548;2023-04-07T08:30:00;101481.44;;;6.43;100.00
68594;BME280;55563;52.416;13.548;2023-04-07T08:32:01;101484.72;;;6.32;100.00
68594;BME280;55563;52.416;13.548;2023-04-07T08:34:02;101490.16;;;6.62;100.00
68594;BME280;55563;52.416;13.548;2023-04-07T08:36:03;101479.16;;;6.53;100.00
68594;BME280;55563;52.416;13.548;2023-04-07T08:38:03;101488.19;;;6.57;98.59
68594;BME280;55563;52.416;13.548;2023-04-07T08:40:06;101489.59;;;6.60;99.07
68594;BME280;55563;52.416;13.548;2023-04-07T08:42:07;101486.44;;;6.76;100.00
68594;BME280;55563;52.416;13.548;2023-04-07T08:44:10;101490.31;;;6.67;99.08
68594;BME280;55563;52.416;13.548;2023-04-07T08:46:11;101497.94;;;6.75;98.17
68594;BME280;55563;52.416;13.548;2023-04-07T08:48:22;101496.53;;;6.97;98.55
68594;BME280;55563;52.416;13.548;2023-04-07T08:50:26;101498.75;;;6.69;93.94
68594;BME280;55563;52.416;13.548;2023-04-07T08:52:33;101509.53;;;6.48;95.61
68594;BME280;55563;52.416;13.548;2023-04-07T08:54:35;101499.66;;;6.56;96.75
68594;BME280;55563;52.416;13.548;2023-04-07T08:56:38;101507.34;;;6.45;91.23
68594;BME280;55563;52.416;13.548;2023-04-07T08:58:43;101507.88;;;6.53;88.30
68594;BME280;55563;52.416;13.548;2023-04-07T09:00:44;101507.53;;;6.43;87.34
68594;BME280;55563;52.416;13.548;2023-04-07T09:02:46;101512.56;;;6.00;84.43
68594;BME280;55563;52.416;13.548;2023-04-07T09:04:48;101518.44;;;5.89;84.04
68594;BME280;55563;52.416;13.548;2023-04-07T09:06:49;101513.97;;;5.96;86.03
68594;BME280;55563;52.416;13.548;2023-04-07T09:08:49;101520.00;;;6.03;91.33
68594;BME280;55563;52.416;13.548;2023-04-07T09:10:50;101509.50;;;6.10;92.15
68594;BME280;55563;52.416;13.548;2023-04-07T09:12:51;101520.19;;;6.02;91.71
68594;BME280;55563;52.416;13.548;2023-04-07T09:14:52;101515.13;;;6.13;88.31
68594;BME280;55563;52.416;13.548;2023-04-07T09:16:53;101515.91;;;6.14;91.70
68594;BME280;55563;52.416;13.548;2023-04-07T09:18:55;101518.94;;;6.11;93.59
68594;BME280;55563;52.416;13.548;2023-04-07T09:20:57;101514.91;;;6.15;94.32
68594;BME280;55563;52.416;13.548;2023-04-07T09:22:59;101517.41;;;5.90;94.29
68594;BME280;55563;52.416;13.548;2023-04-07T09:25:17;101517.81;;;5.94;93.99
68594;BME280;55563;52.416;13.548;2023-04-07T09:27:19;101517.22;;;5.72;91.75
68594;BME280;55563;52.416;13.548;2023-04-07T09:29:20;101516.25;;;5.53;90.00
68594;BME280;55563;52.416;13.548;2023-04-07T09:31:22;101523.28;;;5.59;89.54
68594;BME280;55563;52.416;13.548;2023-04-07T09:33:26;101527.31;;;5.55;84.49
68594;BME280;55563;52.416;13.548;2023-04-07T09:35:27;101519.25;;;5.70;85.42
68594;BME280;55563;52.416;13.548;2023-04-07T09:37:29;101529.88;;;5.88;88.26
68594;BME280;55563;52.416;13.548;2023-04-07T09:39:29;101529.06;;;5.68;77.47
68594;BME280;55563;52.416;13.548;2023-04-07T09:41:30;101522.66;;;5.70;74.79
68594;BME280;55563;52.416;13.548;2023-04-07T09:43:31;101528.03;;;5.82;76.39
68594;BME280;55563;52.416;13.548;2023-04-07T09:45:32;101528.66;;;5.91;77.74
68594;BME280;55563;52.416;13.548;2023-04-07T09:47:34;101534.03;;;6.02;79.31
68594;BME280;55563;52.416;13.548;2023-04-07T09:49:49;101523.22;;;5.86;76.35
68594;BME280;55563;52.416;13.548;2023-04-07T09:51:58;101528.47;;;5.79;76.20
68594;BME280;55563;52.416;13.548;2023-04-07T09:54:00;101523.66;;;5.89;79.09
68594;BME280;55563;52.416;13.548;2023-04-07T09:56:00;101532.28;;;5.90;79.73
68594;BME280;55563;52.416;13.548;2023-04-07T09:58:03;101523.25;;;5.72;74.11
68594;BME280;55563;52.416;13.548;2023-04-07T10:00:04;101527.47;;;5.74;74.65
68594;BME280;55563;52.416;13.548;2023-04-07T10:02:24;101529.34;;;5.27;69.83
68594;BME280;55563;52.416;13.548;2023-04-07T10:04:26;101525.50;;;5.49;71.99
68594;BME280;55563;52.416;13.548;2023-04-07T10:06:27;101537.72;;;5.49;71.88
68594;BME280;55563;52.416;13.548;2023-04-07T10:08:30;101530.31;;;5.59;72.77
68594;BME280;55563;52.416;13.548;2023-04-07T10:10:31;101530.91;;;5.54;73.02
68594;BME280;55563;52.416;13.548;2023-04-07T10:12:34;101535.72;;;5.44;72.16
68594;BME280;55563;52.416;13.548;2023-04-07T10:14:36;101536.72;;;5.23;72.96
68594;BME280;55563;52.416;13.548;2023-04-07T10:16:37;101529.91;;;5.55;72.75
68594;BME280;55563;52.416;13.548;2023-04-07T10:18:39;101534.72;;;5.39;70.88
68594;BME280;55563;52.416;13.548;2023-04-07T10:20:40;101521.50;;;5.40;71.64
68594;BME280;55563;52.416;13.548;2023-04-07T10:22:43;101529.91;;;5.42;72.72
68594;BME280;55563;52.416;13.548;2023-04-07T10:24:56;101522.69;;;5.44;71.85
68594;BME280;55563;52.416;13.548;2023-04-07T10:26:59;101525.28;;;5.70;74.64
68594;BME280;55563;52.416;13.548;2023-04-07T10:29:09;101529.84;;;5.82;74.76
68594;BME280;55563;52.416;13.548;2023-04-07T10:31:11;101528.88;;;5.69;72.29
68594;BME280;55563;52.416;13.548;2023-04-07T10:33:12;101530.06;;;5.87;74.87
68594;BME280;55563;52.416;13.548;2023-04-07T10:35:13;101526.22;;;5.96;78.80
68594;BME280;55563;52.416;13.548;2023-04-07T10:37:14;101518.44;;;5.89;82.77
68594;BME280;55563;52.416;13.548;2023-04-07T10:41:35;101533.81;;;6.10;83.27